Aeroporto :
LOGIN :

Iscrizione | Disclaimer

   EN    FR    IT 

 










Sommario :    VFR   VFR Marginale   IFR   IFR Intensivo   IFR Molto Intensivo
Visibilità : 
Base nubi : 
>= 8 km
>= 3000ft
5 / 8 km
1000 / 3000 ft
1500m / 5 km
500 / 1000 ft
800 / 1500m
200 / 500 ft
< 800m
< 200 ft
Simboli :   Temporali  Nebbia  Neve Forte  Precipitazioni Forti  Vento > 20 kt
SIGMETs :   Varie  Temporali  Ghiacco  Turbolenza  Onda orograficha  Ceneri Vulcaniche






- Altitudine del aeroporto : 231 ft
- Codice IATA : WTN


EGXW - RAF Waddington

ULTIMO METAR :
  • 290950Z 25015KT 9999 FEW030 SCT250 05/01 Q1004 NOSIG RMK BLU BLU

METARs OBSOLETI :
  • 290920Z 25012KT 9999 FEW015 04/00 Q1004 NOSIG RMK BLU BLU
  • 290850Z 25011KT 9999 FEW025 SCT220 03/00 Q1004 NOSIG RMK BLU BLU
  • 290820Z 25013KT 9999 FEW022 SCT220 03/M00 Q1003 NOSIG RMK BLU BLU
  • 290750Z 27013KT 9999 FEW025 04/00 Q1003 NOSIG RMK BLU BLU
  • 290720Z 26010KT 9999 FEW024 03/M00 Q1002 NOSIG RMK BLU BLU

TAF TAF EGXW
Valido dal 29 a 09 ore il 30 a 03 ore UTC


290725Z 2909/3003 25014KT 9999 SCT030
PROB40
TEMPO 2909/2915 26015G25KT
PROB30
TEMPO 2909/2911 SCT020
BECMG 2915/2918 23017G27KT
PROB30
TEMPO 2917/3003 BKN022
BECMG 3000/3003 22012KT



MetMap, La meteo Aeronautica in un colpo d'occhio ! - Copyright ORBIFLY Dicembre 2007 - Disclaimer

ORBIFLY MET'MAP TEAM :

Programmazione e sviluppo : Alexandra Zaïnal
Concezione : Baudouin d'Aumeries
Aiuto per la programmazione : Marc-Olivier Méhu
Supporto tecnico e logistico : Manuel Goepfert
Aiuto per la traduzione : Arnaldo La Scala

Contatto : metmap@orbifly.com




FONTI E CREDITI :

   NOAA